Somers, Wisconsin
Current Conditions -  °F | °C
As of 1:53 AM on Friday 21 Nov 2014 (Local Time) from KENW Reporting Station
Clear Clear  
Wind Chill: -3°   Ceiling: Unl
Heat Index:   Visibility: 10mi
Dew Point: -1°   Wind: 6mph
Humidity: 70%   Direction: 280°W
Pressure: 30.34"   Gusts: NA
Location:  42.64°N, 87.91°W
Report Text: KENW 210753Z AUTO 28005KT 10SM CLR M14/M18 A3034 RMK AO2 SLP290 T11391183
Loading
Personal Weather Stations






























Interactive Weather Map New forecast layout! Learn more

10-Day Weather Forecast

Advertisements
Track Severe Weather on mobile